createdAt,value
2018-10-21T00:02:21.134Z,4.17
2018-10-21T00:07:24.181Z,5.47
2018-10-21T00:12:27.285Z,5.23
2018-10-21T00:17:30.397Z,4.30
2018-10-21T00:22:33.504Z,4.87
2018-10-21T00:27:36.613Z,4.30
2018-10-21T00:32:45.030Z,5.83
2018-10-21T00:37:48.138Z,5.20
2018-10-21T00:42:51.238Z,5.67
2018-10-21T00:47:54.605Z,4.80
2018-10-21T00:52:57.713Z,3.80
2018-10-21T00:58:00.890Z,5.23
2018-10-21T01:03:04.001Z,3.80
2018-10-21T01:08:07.105Z,4.87
2018-10-21T01:13:10.233Z,5.47
2018-10-21T01:18:13.343Z,4.60
2018-10-21T01:23:16.442Z,5.00
2018-10-21T01:28:19.544Z,4.10
2018-10-21T01:33:22.644Z,4.60
2018-10-21T01:38:25.798Z,4.73
2018-10-21T01:43:30.901Z,4.70
2018-10-21T01:48:34.017Z,3.70
2018-10-21T01:53:37.116Z,4.47
2018-10-21T01:58:40.223Z,4.47
2018-10-21T02:03:43.336Z,4.90
2018-10-21T02:08:46.441Z,3.83
2018-10-21T02:13:49.577Z,3.67
2018-10-21T02:18:52.761Z,4.70
2018-10-21T02:23:55.865Z,3.70
2018-10-21T02:28:58.967Z,5.60
2018-10-21T02:34:02.080Z,3.70
2018-10-21T02:39:08.264Z,3.98
2018-10-21T02:44:12.544Z,5.65
2018-10-21T02:49:16.332Z,5.12
2018-10-21T02:54:23.617Z,4.53
2018-10-21T02:59:26.909Z,5.07
2018-10-21T03:04:30.016Z,5.40
2018-10-21T03:09:33.272Z,5.70
2018-10-21T03:14:36.375Z,4.87
2018-10-21T03:24:40.116Z,5.97
2018-10-21T03:29:43.292Z,4.80
2018-10-21T03:34:46.709Z,5.10
2018-10-21T03:39:49.817Z,5.67
2018-10-21T03:44:52.920Z,5.23
2018-10-21T03:49:56.045Z,5.03
2018-10-21T03:54:59.141Z,4.90
2018-10-21T04:00:02.232Z,5.57
2018-10-21T04:05:05.689Z,4.50
2018-10-21T04:10:08.847Z,4.63
2018-10-21T04:15:12.172Z,4.60
2018-10-21T04:20:15.281Z,4.63
2018-10-21T04:25:18.696Z,5.08
2018-10-21T04:30:23.829Z,3.20
2018-10-21T04:35:26.960Z,4.30
2018-10-21T04:40:30.048Z,4.53
2018-10-21T04:45:33.166Z,5.63
2018-10-21T04:50:36.520Z,4.67
2018-10-21T04:55:39.629Z,5.23
2018-10-21T05:00:42.907Z,4.27
2018-10-21T05:05:45.936Z,5.00
2018-10-21T05:10:49.051Z,3.60
2018-10-21T05:15:52.184Z,4.10
2018-10-21T05:20:55.289Z,5.00
2018-10-21T05:25:58.635Z,5.67
2018-10-21T05:31:01.998Z,4.43
2018-10-21T05:36:05.817Z,4.65
2018-10-21T05:41:08.928Z,5.07
2018-10-21T05:46:19.891Z,5.20
2018-10-21T05:51:22.988Z,5.50
2018-10-21T05:56:26.094Z,4.83
2018-10-21T06:01:29.188Z,5.13
2018-10-21T06:06:32.292Z,5.07
2018-10-21T06:11:35.465Z,5.17
2018-10-21T06:17:41.989Z,4.17
2018-10-21T06:22:46.225Z,4.90
2018-10-21T06:27:49.426Z,4.13
2018-10-21T06:32:52.436Z,5.50
2018-10-21T06:37:55.540Z,4.73
2018-10-21T06:42:58.643Z,5.03
2018-10-21T06:48:01.744Z,4.37
2018-10-21T06:53:05.824Z,5.17
2018-10-21T06:58:08.990Z,5.20
2018-10-21T07:03:12.124Z,4.63
2018-10-21T07:08:15.245Z,5.72
2018-10-21T07:13:18.346Z,4.22
2018-10-21T07:18:21.444Z,4.87
2018-10-21T07:23:24.553Z,5.67
2018-10-21T07:28:27.944Z,5.37
2018-10-21T07:33:30.965Z,4.30
2018-10-21T07:38:34.074Z,5.60
2018-10-21T07:43:37.184Z,5.07
2018-10-21T07:48:40.296Z,5.40
2018-10-21T07:53:43.449Z,5.70
2018-10-21T07:58:46.555Z,6.47
2018-10-21T08:03:49.720Z,5.73
2018-10-21T08:08:52.828Z,6.63
2018-10-21T08:13:55.932Z,6.13
2018-10-21T08:18:59.036Z,6.17
2018-10-21T08:24:02.152Z,4.97
2018-10-21T08:29:05.574Z,7.83
2018-10-21T08:34:08.714Z,5.20
2018-10-21T08:39:11.816Z,5.77
2018-10-21T08:44:14.928Z,6.08
2018-10-21T08:49:18.092Z,5.90
2018-10-21T08:54:21.148Z,5.97
2018-10-21T08:59:24.368Z,5.30
2018-10-21T09:04:27.540Z,6.03
2018-10-21T09:09:30.672Z,6.37
2018-10-21T09:14:33.800Z,5.70
2018-10-21T09:19:36.912Z,5.23
2018-10-21T09:24:40.026Z,5.20
2018-10-21T09:29:43.136Z,4.83
2018-10-21T09:34:46.277Z,4.60
2018-10-21T09:39:49.397Z,3.60
2018-10-21T09:44:52.508Z,4.17
2018-10-21T09:49:55.682Z,3.50
2018-10-21T09:54:58.744Z,3.33
2018-10-21T10:00:01.822Z,3.70
2018-10-21T10:05:05.742Z,2.83
2018-10-21T10:10:09.967Z,4.43
2018-10-21T10:15:13.005Z,3.10
2018-10-21T10:20:16.113Z,3.90
2018-10-21T10:25:19.316Z,3.83
2018-10-21T10:30:22.370Z,2.70
2018-10-21T10:35:25.421Z,3.80
2018-10-21T10:40:28.645Z,3.60
2018-10-21T10:45:31.734Z,2.97
2018-10-21T10:50:34.844Z,3.10
2018-10-21T10:55:43.233Z,3.17
2018-10-21T11:00:46.509Z,3.30
2018-10-21T11:05:49.625Z,3.30
2018-10-21T11:10:52.724Z,3.37
2018-10-21T11:15:55.827Z,3.80
2018-10-21T11:20:58.929Z,2.97
2018-10-21T11:26:02.424Z,3.20
2018-10-21T11:31:05.660Z,3.07
2018-10-21T11:36:08.764Z,2.67
2018-10-21T11:41:11.884Z,3.15
2018-10-21T11:46:15.119Z,1.80
2018-10-21T11:51:18.105Z,2.43
2018-10-21T11:56:21.216Z,2.43
2018-10-21T12:01:24.332Z,1.93
2018-10-21T12:06:27.445Z,2.70
2018-10-21T12:11:30.553Z,2.47
2018-10-21T12:16:33.666Z,2.67
2018-10-21T12:26:50.812Z,2.30
2018-10-21T12:31:53.922Z,2.37
2018-10-21T12:36:57.040Z,2.40
2018-10-21T12:42:00.148Z,1.77
2018-10-21T12:47:03.309Z,2.13
2018-10-21T12:52:06.487Z,2.30
2018-10-21T12:57:09.568Z,1.23
2018-10-21T13:02:12.748Z,1.70
2018-10-21T13:07:15.918Z,1.30
2018-10-21T13:12:18.913Z,1.70
2018-10-21T13:17:22.024Z,1.32
2018-10-21T13:22:25.138Z,1.57
2018-10-21T13:27:28.252Z,2.30
2018-10-21T13:32:31.357Z,2.10
2018-10-21T13:37:34.601Z,1.60
2018-10-21T13:42:37.725Z,2.00
2018-10-21T13:47:40.856Z,1.70
2018-10-21T13:52:44.067Z,1.40
2018-10-21T13:57:47.078Z,1.80
2018-10-21T14:02:50.189Z,1.93
2018-10-21T14:07:53.318Z,1.90
2018-10-21T14:12:56.471Z,1.50
2018-10-21T14:17:59.525Z,1.60
2018-10-21T14:23:02.628Z,2.97
2018-10-21T14:28:05.756Z,2.23
2018-10-21T14:33:08.915Z,1.70
2018-10-21T14:38:12.009Z,2.08
2018-10-21T14:43:15.091Z,2.37
2018-10-21T14:48:18.256Z,1.80
2018-10-21T14:53:21.308Z,2.08
2018-10-21T14:58:24.416Z,2.27
2018-10-21T15:03:27.603Z,1.70
2018-10-21T15:08:30.648Z,1.87
2018-10-21T15:13:33.772Z,1.60
2018-10-21T15:18:36.892Z,1.70
2018-10-21T15:23:40.005Z,1.30
2018-10-21T15:28:43.122Z,1.67
2018-10-21T15:33:46.233Z,1.30
2018-10-21T15:38:49.444Z,1.73
2018-10-21T15:43:52.553Z,2.00
2018-10-21T15:48:55.727Z,1.70
2018-10-21T15:53:58.908Z,1.60
2018-10-21T15:59:02.020Z,1.67
2018-10-21T16:04:05.970Z,3.00
2018-10-21T16:09:10.961Z,2.17
2018-10-21T16:14:14.079Z,1.80
2018-10-21T16:19:17.189Z,2.17
2018-10-21T16:24:20.300Z,2.10
2018-10-21T16:29:23.416Z,1.70
2018-10-21T16:34:26.536Z,1.27
2018-10-21T16:39:29.641Z,2.00
2018-10-21T16:44:32.765Z,2.90
2018-10-21T16:49:35.875Z,1.90
2018-10-21T16:54:39.358Z,1.57
2018-10-21T16:59:42.379Z,2.07
2018-10-21T17:04:45.623Z,1.73
2018-10-21T17:09:49.186Z,2.00
2018-10-21T17:14:51.948Z,2.43
2018-10-21T17:19:55.062Z,2.27
2018-10-21T17:24:58.170Z,3.03
2018-10-21T17:30:01.564Z,2.40
2018-10-21T17:35:06.414Z,2.10
2018-10-21T17:40:10.796Z,1.83
2018-10-21T17:45:14.632Z,2.15
2018-10-21T17:50:17.735Z,2.23
2018-10-21T17:55:20.855Z,2.33
2018-10-21T18:00:23.978Z,1.90
2018-10-21T18:05:27.089Z,1.70
2018-10-21T18:10:30.216Z,2.30
2018-10-21T18:15:33.336Z,2.67
2018-10-21T18:20:36.531Z,2.30
2018-10-21T18:25:39.582Z,1.90
2018-10-21T18:30:42.696Z,1.60
2018-10-21T18:35:45.809Z,2.37
2018-10-21T18:40:49.059Z,2.70
2018-10-21T18:45:52.062Z,2.90
2018-10-21T18:50:55.208Z,3.53
2018-10-21T18:55:58.329Z,2.43
2018-10-21T19:01:01.710Z,2.17
2018-10-21T19:06:05.731Z,2.60
2018-10-21T19:11:08.901Z,2.73
2018-10-21T19:16:12.048Z,3.05
2018-10-21T19:21:15.118Z,3.00
2018-10-21T19:26:18.288Z,3.75
2018-10-21T19:31:21.420Z,2.60
2018-10-21T19:36:24.521Z,2.50
2018-10-21T19:41:27.629Z,2.30
2018-10-21T19:46:30.739Z,2.70
2018-10-21T19:51:33.844Z,2.03
2018-10-21T19:56:36.940Z,2.30
2018-10-21T20:01:40.049Z,2.80
2018-10-21T20:06:43.163Z,2.67
2018-10-21T20:11:46.260Z,1.70
2018-10-21T20:16:49.371Z,2.77
2018-10-21T20:21:52.741Z,2.23
2018-10-21T20:26:55.844Z,2.90
2018-10-21T20:31:58.947Z,2.87
2018-10-21T20:37:02.052Z,2.73
2018-10-21T20:42:05.967Z,2.52
2018-10-21T20:47:09.013Z,3.50
2018-10-21T20:52:12.171Z,3.17
2018-10-21T20:57:15.668Z,1.90
2018-10-21T21:02:18.789Z,2.90
2018-10-21T21:07:21.895Z,2.40
2018-10-21T21:12:24.994Z,3.23
2018-10-21T21:17:28.363Z,3.10
2018-10-21T21:22:31.462Z,2.57
2018-10-21T21:27:34.721Z,2.00
2018-10-21T21:32:37.815Z,3.03
2018-10-21T21:37:40.924Z,2.27
2018-10-21T21:42:44.020Z,2.97
2018-10-21T21:47:47.123Z,3.17
2018-10-21T21:52:50.224Z,2.67
2018-10-21T21:57:53.326Z,2.27
2018-10-21T22:02:56.438Z,2.83
2018-10-21T22:07:59.536Z,2.53
2018-10-21T22:13:02.645Z,3.10
2018-10-21T22:18:05.878Z,2.90
2018-10-21T22:23:08.912Z,3.87
2018-10-21T22:28:12.306Z,2.27
2018-10-21T22:33:15.373Z,2.55
2018-10-21T22:38:18.751Z,3.23
2018-10-21T22:43:21.857Z,3.23
2018-10-21T22:48:24.960Z,2.97
2018-10-21T22:53:28.060Z,2.57
2018-10-21T22:58:31.177Z,2.23
2018-10-21T23:03:34.529Z,2.30
2018-10-21T23:08:37.622Z,2.60
2018-10-21T23:13:40.721Z,2.77
2018-10-21T23:18:43.896Z,3.10
2018-10-21T23:23:46.924Z,3.10
2018-10-21T23:28:50.040Z,3.50
2018-10-21T23:33:53.150Z,2.67
2018-10-21T23:38:56.441Z,2.40
2018-10-21T23:43:59.599Z,3.00
2018-10-21T23:49:02.906Z,3.47
2018-10-21T23:54:06.032Z,3.70
2018-10-21T23:59:10.077Z,2.80
